Carpenter, Mississippi
Current Conditions -  °F | °C
As of 4:55 PM on Tuesday 25 Nov 2014 (Local Time) from KVKS Reporting Station
Clear Clear  
Wind Chill: 46°   Ceiling: Unl
Heat Index: 48°   Visibility: 10mi
Dew Point: 32°   Wind: 5mph
Humidity: 54%   Direction: 320°NW
Pressure: 30.2"   Gusts: NA
Location:  31.955°N, 90.8237°W
Report Text: KVKS 252255Z AUTO 32004KT 10SM CLR 09/M00 A3020 RMK A01
Loading
Personal Weather Stations






























Interactive Weather Map New forecast layout! Learn more

10-Day Weather Forecast

Advertisements
Track Severe Weather on mobile